createdAt,value
2019-01-22T00:02:15.412Z,-4.50
2019-01-22T00:04:43.666Z,-4.60
2019-01-22T00:07:11.928Z,-4.60
2019-01-22T00:09:40.558Z,-4.50
2019-01-22T00:12:08.892Z,-4.40
2019-01-22T00:14:37.170Z,-4.40
2019-01-22T00:17:05.414Z,-4.40
2019-01-22T00:19:33.728Z,-4.40
2019-01-22T00:22:01.982Z,-4.30
2019-01-22T00:24:30.602Z,-4.30
2019-01-22T00:26:58.877Z,-4.50
2019-01-22T00:29:27.202Z,-4.50
2019-01-22T00:31:55.463Z,-4.60
2019-01-22T00:34:23.717Z,-4.60
2019-01-22T00:36:51.995Z,-4.50
2019-01-22T00:39:20.635Z,-4.60
2019-01-22T00:41:48.970Z,-4.50
2019-01-22T00:44:17.230Z,-4.40
2019-01-22T00:46:45.516Z,-4.50
2019-01-22T00:49:13.772Z,-4.60
2019-01-22T00:51:42.017Z,-4.60
2019-01-22T00:54:10.375Z,-4.70
2019-01-22T00:56:38.696Z,-4.70
2019-01-22T00:59:06.963Z,-4.70
2019-01-22T01:01:35.202Z,-4.70
2019-01-22T01:04:03.472Z,-4.70
2019-01-22T01:06:31.718Z,-4.70
2019-01-22T01:08:59.969Z,-4.70
2019-01-22T01:11:28.217Z,-4.60
2019-01-22T01:13:56.533Z,-4.50
2019-01-22T01:16:24.830Z,-4.50
2019-01-22T01:18:53.124Z,-4.60
2019-01-22T01:21:21.393Z,-4.70
2019-01-22T01:23:49.643Z,-4.70
2019-01-22T01:26:17.915Z,-4.70
2019-01-22T01:28:46.168Z,-4.70
2019-01-22T01:31:14.422Z,-4.70
2019-01-22T01:33:42.670Z,-4.80
2019-01-22T01:36:10.919Z,-4.70
2019-01-22T01:38:39.170Z,-4.60
2019-01-22T01:41:07.427Z,-4.40
2019-01-22T01:43:35.702Z,-4.50
2019-01-22T01:46:03.976Z,-4.50
2019-01-22T01:48:32.227Z,-4.50
2019-01-22T01:51:00.478Z,-4.50
2019-01-22T01:53:28.816Z,-4.40
2019-01-22T01:55:57.173Z,-4.40
2019-01-22T01:58:25.424Z,-4.30
2019-01-22T02:00:53.689Z,-4.30
2019-01-22T02:03:21.949Z,-4.30
2019-01-22T02:05:50.186Z,-4.20
2019-01-22T02:08:18.429Z,-4.20
2019-01-22T02:10:46.703Z,-4.10
2019-01-22T02:13:14.970Z,-4.10
2019-01-22T02:15:49.137Z,-4.00
2019-01-22T02:18:45.079Z,-4.00
2019-01-22T02:21:19.141Z,-3.90
2019-01-22T02:23:56.286Z,-3.90
2019-01-22T02:26:33.849Z,-3.90
2019-01-22T02:29:08.017Z,-3.80
2019-01-22T02:31:42.058Z,-3.80
2019-01-22T02:34:16.159Z,-3.90
2019-01-22T02:36:56.462Z,-3.90
2019-01-22T02:39:39.789Z,-3.90
2019-01-22T02:42:17.202Z,-3.90
2019-01-22T02:45:00.965Z,-3.90
2019-01-22T02:47:32.543Z,-3.90
2019-01-22T02:50:20.374Z,-3.90
2019-01-22T02:52:57.622Z,-4.00
2019-01-22T02:55:29.158Z,-4.00
2019-01-22T02:58:15.725Z,-4.10
2019-01-22T03:01:06.625Z,-4.10
2019-01-22T03:03:38.224Z,-4.00
2019-01-22T03:06:26.185Z,-4.00
2019-01-22T03:09:20.359Z,-4.00
2019-01-22T03:11:51.879Z,-4.00
2019-01-22T03:14:29.163Z,-4.00
2019-01-22T03:17:18.797Z,-4.00
2019-01-22T03:19:53.255Z,-4.00
2019-01-22T03:22:24.747Z,-4.00
2019-01-22T03:25:08.197Z,-4.10
2019-01-22T03:27:54.774Z,-4.10
2019-01-22T03:30:46.076Z,-4.10
2019-01-22T03:33:46.628Z,-4.10
2019-01-22T03:36:39.534Z,-4.10
2019-01-22T03:39:14.082Z,-4.10
2019-01-22T03:41:48.392Z,-4.10
2019-01-22T03:44:29.208Z,-4.10
2019-01-22T03:47:23.761Z,-4.10
2019-01-22T03:49:58.022Z,-4.20
2019-01-22T03:52:44.574Z,-4.10
2019-01-22T03:55:39.630Z,-4.10
2019-01-22T03:58:07.954Z,-4.10
2019-01-22T04:00:38.028Z,-4.10
2019-01-22T04:03:06.278Z,-4.10
2019-01-22T04:05:34.525Z,-4.10
2019-01-22T04:08:02.814Z,-4.10
2019-01-22T04:10:31.121Z,-4.10
2019-01-22T04:12:59.375Z,-4.00
2019-01-22T04:15:33.867Z,-4.00
2019-01-22T04:18:02.114Z,-4.00
2019-01-22T04:20:30.371Z,-4.00
2019-01-22T04:22:58.781Z,-4.00
2019-01-22T04:25:32.968Z,-4.00
2019-01-22T04:28:10.513Z,-4.00
2019-01-22T04:30:42.048Z,-4.00
2019-01-22T04:33:46.799Z,-4.00
2019-01-22T04:36:20.859Z,-4.00
2019-01-22T04:39:01.192Z,-3.90
2019-01-22T04:41:49.549Z,-3.80
2019-01-22T04:44:26.843Z,-3.80
2019-01-22T04:47:04.389Z,-3.70
2019-01-22T04:49:52.317Z,-3.60
2019-01-22T04:52:26.397Z,-3.60
2019-01-22T04:55:09.756Z,-3.60
2019-01-22T04:57:46.850Z,-3.50
2019-01-22T05:00:39.564Z,-3.50
2019-01-22T05:03:11.106Z,-3.50
2019-01-22T05:05:51.432Z,-3.40
2019-01-22T05:08:53.302Z,-3.40
2019-01-22T05:11:24.800Z,-3.40
2019-01-22T05:13:59.243Z,-3.30
2019-01-22T05:16:42.550Z,-3.30
2019-01-22T05:19:16.717Z,-3.30
2019-01-22T05:22:11.155Z,-3.30
2019-01-22T05:25:00.769Z,-3.30
2019-01-22T05:28:08.353Z,-3.20
2019-01-22T05:30:39.900Z,-3.20
2019-01-22T05:33:11.408Z,-3.20
2019-01-22T05:36:03.822Z,-3.20
2019-01-22T05:38:52.017Z,-3.30
2019-01-22T05:41:32.179Z,-3.30
2019-01-22T05:44:12.457Z,-3.40
2019-01-22T05:46:53.083Z,-3.40
2019-01-22T05:49:44.404Z,-3.40
2019-01-22T05:52:18.569Z,-3.40
2019-01-22T05:54:56.221Z,-3.40
2019-01-22T05:57:26.823Z,-3.40
2019-01-22T06:00:03.813Z,-3.40
2019-01-22T06:02:35.361Z,-3.40
2019-01-22T06:05:09.536Z,-3.40
2019-01-22T06:07:57.805Z,-3.40
2019-01-22T06:10:51.910Z,-3.40
2019-01-22T06:13:23.436Z,-3.40
2019-01-22T06:16:17.448Z,-3.40
2019-01-22T06:18:54.905Z,-3.40
2019-01-22T06:21:50.046Z,-3.40
2019-01-22T06:24:33.299Z,-3.40
2019-01-22T06:27:03.838Z,-3.40
2019-01-22T06:29:59.284Z,-3.30
2019-01-22T06:32:45.160Z,-3.30
2019-01-22T06:35:22.658Z,-3.40
2019-01-22T06:38:10.650Z,-3.40
2019-01-22T06:40:59.138Z,-3.40
2019-01-22T06:43:39.569Z,-3.40
2019-01-22T06:46:16.592Z,-3.30
2019-01-22T06:48:50.883Z,-3.40
2019-01-22T06:51:22.384Z,-3.40
2019-01-22T06:53:59.533Z,-3.50
2019-01-22T06:56:40.008Z,-3.40
2019-01-22T06:59:23.435Z,-3.50
2019-01-22T07:01:57.487Z,-3.50
2019-01-22T07:04:34.662Z,-3.50
2019-01-22T07:07:22.933Z,-3.60
2019-01-22T07:10:03.113Z,-3.70
2019-01-22T07:12:34.613Z,-3.70
2019-01-22T07:15:17.938Z,-3.70
2019-01-22T07:18:09.132Z,-3.60
2019-01-22T07:20:55.006Z,-3.80
2019-01-22T07:23:35.217Z,-3.70
2019-01-22T07:26:29.188Z,-3.70
2019-01-22T07:29:06.207Z,-3.70
2019-01-22T07:31:46.706Z,-3.80
2019-01-22T07:34:34.696Z,-3.70
2019-01-22T07:37:21.306Z,-3.70
2019-01-22T07:39:55.632Z,-3.80
2019-01-22T07:42:30.025Z,-3.80
2019-01-22T07:45:19.749Z,-3.80
2019-01-22T07:47:54.166Z,-3.80
2019-01-22T07:50:25.713Z,-3.80
2019-01-22T07:53:00.024Z,-3.70
2019-01-22T07:55:37.029Z,-3.70
2019-01-22T07:58:26.634Z,-3.70
2019-01-22T08:01:19.282Z,-3.80
2019-01-22T08:04:13.469Z,-3.60
2019-01-22T08:06:52.345Z,-3.60
2019-01-22T08:09:38.937Z,-3.60
2019-01-22T08:12:32.869Z,-3.50
2019-01-22T08:15:23.998Z,-3.50
2019-01-22T08:18:10.654Z,-3.40
2019-01-22T08:21:01.881Z,-3.30
2019-01-22T08:23:36.158Z,-3.30
2019-01-22T08:26:22.610Z,-3.30
2019-01-22T08:29:03.731Z,-3.30
2019-01-22T08:31:59.151Z,-3.30
2019-01-22T08:34:33.455Z,-3.20
2019-01-22T08:37:10.936Z,-3.20
2019-01-22T08:39:54.241Z,-3.20
2019-01-22T08:42:31.574Z,-3.20
2019-01-22T08:45:21.165Z,-3.10
2019-01-22T08:48:11.815Z,-3.10
2019-01-22T08:50:43.349Z,-3.10
2019-01-22T08:53:46.930Z,-3.10
2019-01-22T08:56:30.582Z,-3.00
2019-01-22T08:59:04.648Z,-2.90
2019-01-22T09:01:42.195Z,-2.80
2019-01-22T09:04:33.111Z,-2.80
2019-01-22T09:07:13.474Z,-2.80
2019-01-22T09:09:50.629Z,-2.70
2019-01-22T09:12:27.665Z,-2.70
2019-01-22T09:15:26.610Z,-2.60
2019-01-22T09:18:19.324Z,-2.50
2019-01-22T09:20:56.429Z,-2.30
2019-01-22T09:23:42.700Z,-2.30
2019-01-22T09:26:32.046Z,-2.10
2019-01-22T09:29:24.687Z,-2.00
2019-01-22T09:32:11.301Z,-1.80
2019-01-22T09:34:48.910Z,-1.70
2019-01-22T09:37:20.429Z,-1.70
2019-01-22T09:39:49.314Z,-1.70
2019-01-22T09:42:17.613Z,-1.60
2019-01-22T09:44:45.869Z,-1.50
2019-01-22T09:47:14.145Z,-1.50
2019-01-22T09:49:42.381Z,-1.50
2019-01-22T09:52:10.650Z,-1.40
2019-01-22T09:54:38.992Z,-1.20
2019-01-22T09:58:34.848Z,1.80
2019-01-22T10:01:03.110Z,1.30
2019-01-22T10:03:31.370Z,0.70
2019-01-22T10:05:59.621Z,0.40
2019-01-22T10:08:27.875Z,0.10
2019-01-22T10:10:56.109Z,0.10
2019-01-22T10:13:24.369Z,-0.20
2019-01-22T10:15:52.622Z,-0.20
2019-01-22T10:18:20.879Z,-0.20
2019-01-22T10:20:49.130Z,-0.10
2019-01-22T10:23:17.375Z,0.00
2019-01-22T10:25:45.640Z,0.10
2019-01-22T10:28:13.880Z,-0.10
2019-01-22T10:30:42.142Z,0.00
2019-01-22T10:33:10.456Z,0.20
2019-01-22T10:35:38.697Z,0.40
2019-01-22T10:38:06.958Z,0.50
2019-01-22T10:40:35.213Z,0.60
2019-01-22T10:43:09.180Z,0.60
2019-01-22T10:45:33.451Z,0.70
2019-01-22T10:48:01.694Z,0.70
2019-01-22T10:50:29.932Z,0.70
2019-01-22T10:52:58.211Z,0.90
2019-01-22T10:55:26.448Z,0.90
2019-01-22T10:57:54.709Z,0.80
2019-01-22T11:00:25.851Z,0.90
2019-01-22T11:02:54.123Z,1.10
2019-01-22T11:05:28.408Z,1.00
2019-01-22T11:07:56.671Z,0.70
2019-01-22T11:10:24.924Z,1.10
2019-01-22T11:12:53.183Z,1.20
2019-01-22T11:15:27.661Z,1.30
2019-01-22T11:17:51.397Z,1.30
2019-01-22T11:20:24.858Z,1.40
2019-01-22T11:22:53.102Z,1.70
2019-01-22T11:25:43.805Z,1.70
2019-01-22T11:28:10.841Z,1.70
2019-01-22T11:30:39.098Z,1.50
2019-01-22T11:33:07.358Z,1.70
2019-01-22T11:35:35.632Z,2.10
2019-01-22T11:38:05.342Z,2.30
2019-01-22T11:40:36.152Z,2.50
2019-01-22T11:43:04.478Z,2.80
2019-01-22T11:45:32.773Z,3.10
2019-01-22T11:48:01.009Z,4.30
2019-01-22T11:50:29.302Z,4.10
2019-01-22T11:52:57.547Z,3.80
2019-01-22T11:55:25.812Z,3.80
2019-01-22T11:57:54.083Z,3.60
2019-01-22T12:00:29.578Z,3.50
2019-01-22T12:02:57.849Z,3.60
2019-01-22T12:05:26.085Z,3.70
2019-01-22T12:07:54.333Z,3.60
2019-01-22T12:10:22.631Z,3.50
2019-01-22T12:12:50.927Z,3.30
2019-01-22T12:15:19.916Z,3.40
2019-01-22T12:17:48.261Z,3.40
2019-01-22T12:20:19.776Z,3.50
2019-01-22T12:22:48.253Z,3.40
2019-01-22T12:25:16.505Z,3.80
2019-01-22T12:27:44.764Z,4.10
2019-01-22T12:30:19.365Z,4.40
2019-01-22T12:32:47.652Z,4.20
2019-01-22T12:35:16.365Z,4.40
2019-01-22T12:37:44.601Z,4.60
2019-01-22T12:40:23.605Z,4.30
2019-01-22T12:42:51.908Z,4.50
2019-01-22T12:45:25.130Z,4.20
2019-01-22T12:47:53.385Z,4.30
2019-01-22T12:50:25.905Z,4.50
2019-01-22T12:52:53.876Z,4.40
2019-01-22T12:55:22.183Z,4.30
2019-01-22T12:57:50.449Z,4.20
2019-01-22T13:00:30.254Z,4.60
2019-01-22T13:02:58.592Z,4.30
2019-01-22T13:05:42.176Z,3.90
2019-01-22T13:08:10.411Z,3.80
2019-01-22T13:10:38.739Z,3.60
2019-01-22T13:13:06.991Z,3.30
2019-01-22T13:15:35.251Z,3.40
2019-01-22T13:18:03.504Z,3.40
2019-01-22T13:20:31.789Z,3.40
2019-01-22T13:23:00.053Z,3.30
2019-01-22T13:25:28.317Z,3.10
2019-01-22T13:27:56.566Z,3.10
2019-01-22T13:30:26.786Z,2.90
2019-01-22T13:32:55.049Z,2.90
2019-01-22T13:35:23.285Z,3.10
2019-01-22T13:37:51.574Z,3.00
2019-01-22T13:40:19.872Z,2.90
2019-01-22T13:42:48.142Z,3.00
2019-01-22T13:45:34.571Z,3.00
2019-01-22T13:48:05.058Z,2.80
2019-01-22T13:50:33.329Z,2.80
2019-01-22T13:53:01.601Z,2.70
2019-01-22T13:55:38.079Z,2.70
2019-01-22T13:58:06.394Z,2.80
2019-01-22T14:00:34.901Z,2.80
2019-01-22T14:03:03.173Z,2.80
2019-01-22T14:05:31.436Z,2.60
2019-01-22T14:07:59.697Z,2.50
2019-01-22T14:10:27.958Z,2.70
2019-01-22T14:12:56.737Z,2.80
2019-01-22T14:15:34.234Z,2.70
2019-01-22T14:18:02.475Z,2.80
2019-01-22T14:20:30.727Z,2.70
2019-01-22T14:22:58.999Z,2.50
2019-01-22T14:25:27.275Z,2.30
2019-01-22T14:27:55.521Z,2.10
2019-01-22T14:30:35.364Z,1.90
2019-01-22T14:33:03.786Z,1.80
2019-01-22T14:35:32.041Z,1.70
2019-01-22T14:38:00.289Z,1.60
2019-01-22T14:40:29.044Z,1.50
2019-01-22T14:42:57.281Z,1.40
2019-01-22T14:45:25.526Z,1.40
2019-01-22T14:47:53.779Z,1.30
2019-01-22T14:50:24.210Z,1.30
2019-01-22T14:52:52.505Z,1.30
2019-01-22T14:55:20.762Z,1.30
2019-01-22T14:57:49.027Z,1.30
2019-01-22T15:00:25.198Z,1.30
2019-01-22T15:02:53.050Z,1.20
2019-01-22T15:05:21.368Z,1.20
2019-01-22T15:07:49.606Z,1.20
2019-01-22T15:10:18.406Z,1.20
2019-01-22T15:12:49.198Z,1.10
2019-01-22T15:15:18.483Z,1.00
2019-01-22T15:17:46.741Z,1.10
2019-01-22T15:20:22.782Z,1.00
2019-01-22T15:22:51.129Z,0.90
2019-01-22T15:25:19.397Z,0.90
2019-01-22T15:27:51.618Z,0.80
2019-01-22T15:30:25.631Z,0.90
2019-01-22T15:32:53.885Z,0.90
2019-01-22T15:35:22.124Z,0.80
2019-01-22T15:37:50.381Z,0.80
2019-01-22T15:40:25.664Z,0.80
2019-01-22T15:42:53.962Z,0.70
2019-01-22T15:45:22.419Z,0.60
2019-01-22T15:47:50.695Z,0.60
2019-01-22T15:50:20.480Z,0.60
2019-01-22T15:52:48.734Z,0.60
2019-01-22T15:55:28.185Z,0.70
2019-01-22T15:57:56.439Z,0.60
2019-01-22T16:00:26.230Z,0.60
2019-01-22T16:02:54.470Z,0.60
2019-01-22T16:05:22.754Z,0.50
2019-01-22T16:07:51.020Z,0.40
2019-01-22T16:10:19.260Z,0.40
2019-01-22T16:12:47.526Z,0.40
2019-01-22T16:15:17.718Z,0.50
2019-01-22T16:17:45.972Z,0.40
2019-01-22T16:20:17.115Z,0.40
2019-01-22T16:22:45.453Z,0.50
2019-01-22T16:25:13.965Z,0.40
2019-01-22T16:27:42.270Z,0.30
2019-01-22T16:30:13.550Z,0.30
2019-01-22T16:32:41.828Z,0.30
2019-01-22T16:35:12.446Z,0.30
2019-01-22T16:37:40.785Z,0.30
2019-01-22T16:40:11.639Z,0.20
2019-01-22T16:42:39.938Z,0.20
2019-01-22T16:45:14.522Z,0.20
2019-01-22T16:47:42.754Z,0.20
2019-01-22T16:50:13.157Z,0.20
2019-01-22T16:52:41.411Z,0.20
2019-01-22T16:55:13.219Z,0.30
2019-01-22T16:57:41.450Z,0.20
2019-01-22T17:00:15.839Z,0.30
2019-01-22T17:02:44.096Z,0.20
2019-01-22T17:05:12.325Z,0.10
2019-01-22T17:07:40.597Z,0.10
2019-01-22T17:10:12.261Z,0.10
2019-01-22T17:12:40.597Z,0.10
2019-01-22T17:15:10.273Z,0.00
2019-01-22T17:17:38.535Z,0.00
2019-01-22T17:20:17.256Z,0.10
2019-01-22T17:22:43.133Z,0.10
2019-01-22T17:25:11.394Z,0.00
2019-01-22T17:27:39.658Z,0.00
2019-01-22T17:30:11.259Z,0.00
2019-01-22T17:32:41.140Z,0.00
2019-01-22T17:35:10.510Z,0.00
2019-01-22T17:37:38.754Z,-0.10
2019-01-22T17:40:10.290Z,-0.10
2019-01-22T17:42:38.550Z,-0.10
2019-01-22T17:45:08.066Z,-0.10
2019-01-22T17:47:36.409Z,-0.20
2019-01-22T17:50:11.041Z,-0.20
2019-01-22T17:52:37.893Z,-0.20
2019-01-22T17:55:09.220Z,-0.20
2019-01-22T17:57:37.463Z,-0.20
2019-01-22T18:00:09.235Z,-0.30
2019-01-22T18:02:37.505Z,-0.30
2019-01-22T18:05:07.593Z,-0.30
2019-01-22T18:07:35.841Z,-0.30
2019-01-22T18:10:06.752Z,-0.30
2019-01-22T18:12:35.035Z,-0.40
2019-01-22T18:15:03.283Z,-0.40
2019-01-22T18:17:31.564Z,-0.40
2019-01-22T18:19:59.914Z,-0.40
2019-01-22T18:22:28.179Z,-0.40
2019-01-22T18:24:56.448Z,-0.40
2019-01-22T18:27:24.719Z,-0.50
2019-01-22T18:30:13.577Z,-0.40
2019-01-22T18:32:41.821Z,-0.40
2019-01-22T18:35:15.864Z,-0.50
2019-01-22T18:37:44.110Z,-0.50
2019-01-22T18:40:14.097Z,-0.40
2019-01-22T18:42:42.376Z,-0.50
2019-01-22T18:45:13.576Z,-0.50
2019-01-22T18:47:41.829Z,-0.50
2019-01-22T18:50:13.369Z,-0.60
2019-01-22T18:52:41.633Z,-0.60
2019-01-22T18:55:09.880Z,-0.60
2019-01-22T18:57:38.132Z,-0.60
2019-01-22T19:00:14.940Z,-0.60
2019-01-22T19:02:43.217Z,-0.50
2019-01-22T19:05:11.457Z,-0.60
2019-01-22T19:07:39.888Z,-0.60
2019-01-22T19:10:14.015Z,-0.60
2019-01-22T19:12:42.257Z,-0.60
2019-01-22T19:15:13.555Z,-0.60
2019-01-22T19:17:43.460Z,-0.70
2019-01-22T19:20:12.279Z,-0.70
2019-01-22T19:22:40.547Z,-0.60
2019-01-22T19:25:14.653Z,-0.60
2019-01-22T19:27:43.186Z,-0.70
2019-01-22T19:30:14.469Z,-0.70
2019-01-22T19:32:42.711Z,-0.70
2019-01-22T19:35:11.071Z,-0.70
2019-01-22T19:37:39.360Z,-0.70
2019-01-22T19:40:10.777Z,-0.70
2019-01-22T19:42:39.042Z,-0.80
2019-01-22T19:45:13.269Z,-0.70
2019-01-22T19:47:41.549Z,-0.80
2019-01-22T19:50:12.475Z,-0.70
2019-01-22T19:52:40.847Z,-0.70
2019-01-22T19:55:10.045Z,-0.80
2019-01-22T19:57:41.205Z,-0.70
2019-01-22T20:00:17.957Z,-0.70
2019-01-22T20:02:46.299Z,-0.70
2019-01-22T20:05:14.606Z,-0.70
2019-01-22T20:07:42.939Z,-0.70
2019-01-22T20:10:13.833Z,-0.80
2019-01-22T20:12:42.108Z,-0.70
2019-01-22T20:15:12.990Z,-0.70
2019-01-22T20:17:41.336Z,-0.80
2019-01-22T20:20:12.621Z,-0.80
2019-01-22T20:22:40.881Z,-0.80
2019-01-22T20:25:09.150Z,-0.70
2019-01-22T20:27:37.397Z,-0.70
2019-01-22T20:30:18.030Z,-0.70
2019-01-22T20:32:46.323Z,-0.80
2019-01-22T20:35:14.614Z,-0.80
2019-01-22T20:37:43.004Z,-0.80
2019-01-22T20:40:13.596Z,-0.80
2019-01-22T20:42:41.838Z,-0.80
2019-01-22T20:45:27.354Z,-0.80
2019-01-22T20:47:55.616Z,-0.80
2019-01-22T20:50:23.869Z,-0.80
2019-01-22T20:52:52.142Z,-0.80
2019-01-22T20:55:22.220Z,-0.80
2019-01-22T20:57:54.806Z,-0.80
2019-01-22T21:00:23.028Z,-0.80
2019-01-22T21:02:51.374Z,-0.80
2019-01-22T21:05:30.521Z,-0.90
2019-01-22T21:07:58.807Z,-0.80
2019-01-22T21:10:29.650Z,-0.80
2019-01-22T21:12:57.901Z,-0.80
2019-01-22T21:15:26.313Z,-0.80
2019-01-22T21:17:54.560Z,-0.80
2019-01-22T21:20:22.842Z,-0.80
2019-01-22T21:22:51.400Z,-0.90
2019-01-22T21:25:21.553Z,-0.90
2019-01-22T21:27:49.793Z,-0.90
2019-01-22T21:30:29.403Z,-0.90
2019-01-22T21:32:57.639Z,-0.90
2019-01-22T21:35:25.979Z,-0.90
2019-01-22T21:37:54.268Z,-0.80
2019-01-22T21:40:22.521Z,-0.90
2019-01-22T21:42:50.972Z,-0.90
2019-01-22T21:45:21.653Z,-0.90
2019-01-22T21:47:49.883Z,-0.90
2019-01-22T21:50:18.195Z,-0.90
2019-01-22T21:52:46.556Z,-0.90
2019-01-22T21:55:22.174Z,-0.90
2019-01-22T21:57:50.504Z,-1.00
2019-01-22T22:00:24.106Z,-0.90
2019-01-22T22:02:52.346Z,-0.90
2019-01-22T22:05:22.745Z,-0.90
2019-01-22T22:07:51.014Z,-0.90
2019-01-22T22:10:20.497Z,-0.90
2019-01-22T22:12:48.757Z,-1.00
2019-01-22T22:15:19.254Z,-1.00
2019-01-22T22:17:47.537Z,-1.00
2019-01-22T22:20:16.615Z,-0.90
2019-01-22T22:22:44.963Z,-0.90
2019-01-22T22:25:21.846Z,-1.00
2019-01-22T22:27:50.114Z,-1.00
2019-01-22T22:30:33.068Z,-1.00
2019-01-22T22:33:01.331Z,-1.00
2019-01-22T22:35:29.580Z,-1.00
2019-01-22T22:37:59.227Z,-1.00
2019-01-22T22:40:27.673Z,-1.10
2019-01-22T22:42:55.926Z,-1.00
2019-01-22T22:45:24.347Z,-1.00
2019-01-22T22:47:53.258Z,-1.00
2019-01-22T22:50:27.083Z,-1.10
2019-01-22T22:52:55.367Z,-1.10
2019-01-22T22:55:23.640Z,-1.10
2019-01-22T22:57:51.968Z,-1.10
2019-01-22T23:00:30.266Z,-1.00
2019-01-22T23:02:58.634Z,-1.00
2019-01-22T23:05:26.891Z,-1.00
2019-01-22T23:07:55.159Z,-1.10
2019-01-22T23:10:23.429Z,-1.10
2019-01-22T23:12:51.697Z,-1.10
2019-01-22T23:15:19.972Z,-1.10
2019-01-22T23:17:48.220Z,-1.10
2019-01-22T23:20:16.484Z,-1.00
2019-01-22T23:22:44.760Z,-1.10
2019-01-22T23:25:13.000Z,-1.10
2019-01-22T23:27:41.278Z,-1.10
2019-01-22T23:30:12.075Z,-1.10
2019-01-22T23:32:40.405Z,-1.10
2019-01-22T23:35:09.124Z,-1.10
2019-01-22T23:37:37.414Z,-1.10
2019-01-22T23:40:08.989Z,-1.10
2019-01-22T23:42:37.246Z,-1.10
2019-01-22T23:45:08.842Z,-1.10
2019-01-22T23:47:37.151Z,-1.10
2019-01-22T23:50:10.179Z,-1.10
2019-01-22T23:52:38.505Z,-1.10
2019-01-22T23:55:08.116Z,-1.00
2019-01-22T23:57:36.420Z,-1.00
